Airport ICAO


07:23 UTC

14°C

Clear skies


An affordable passengers' Moving Map for your aircraft. Made for the iPad and the iPhone
More information here

LFMC Le Cannet


Le Luc FRANCE   VFR CAVOK


METAR LFMC 200700Z 25005KT 210V270 CAVOK 14/04 Q1016 0h23min





NOTAMS

OPEN